createdAt,value
2022-10-23T00:00:27.978Z,11.16
2022-10-23T00:02:38.551Z,11.31
2022-10-23T00:04:47.116Z,11.41
2022-10-23T00:06:55.219Z,11.55
2022-10-23T00:09:03.458Z,11.47
2022-10-23T00:11:13.855Z,11.41
2022-10-23T00:13:21.881Z,11.50
2022-10-23T00:15:29.846Z,11.37
2022-10-23T00:17:40.503Z,11.32
2022-10-23T00:19:48.661Z,11.34
2022-10-23T00:21:56.622Z,11.31
2022-10-23T00:24:05.252Z,11.36
2022-10-23T00:26:15.949Z,11.33
2022-10-23T00:28:24.104Z,11.36
2022-10-23T00:30:31.936Z,11.29
2022-10-23T00:32:43.486Z,11.09
2022-10-23T00:34:51.720Z,11.08
2022-10-23T00:36:59.797Z,11.09
2022-10-23T00:39:07.957Z,10.98
2022-10-23T00:41:20.841Z,10.91
2022-10-23T00:43:31.281Z,10.82
2022-10-23T00:45:39.437Z,10.88
2022-10-23T00:47:51.805Z,10.86
2022-10-23T00:50:01.758Z,10.69
2022-10-23T00:52:12.274Z,10.74
2022-10-23T00:54:24.330Z,10.75
2022-10-23T00:56:34.166Z,10.76
2022-10-23T00:58:41.984Z,10.73
2022-10-23T01:00:54.881Z,10.76
2022-10-23T01:03:05.443Z,10.65
2022-10-23T01:05:13.955Z,10.64
2022-10-23T01:07:25.722Z,10.61
2022-10-23T01:09:40.998Z,10.69
2022-10-23T01:11:55.958Z,10.77
2022-10-23T01:14:13.651Z,10.70
2022-10-23T01:16:26.827Z,10.63
2022-10-23T01:18:43.722Z,10.66
2022-10-23T01:20:58.345Z,10.70
2022-10-23T01:23:20.994Z,10.78
2022-10-23T01:25:39.567Z,10.76
2022-10-23T01:27:56.060Z,10.76
2022-10-23T01:30:08.986Z,10.74
2022-10-23T01:32:30.986Z,10.71
2022-10-23T01:34:47.588Z,10.73
2022-10-23T01:36:57.356Z,10.82
2022-10-23T01:39:10.892Z,10.82
2022-10-23T01:41:24.111Z,10.85
2022-10-23T01:43:42.032Z,10.73
2022-10-23T01:45:57.757Z,10.72
2022-10-23T01:48:09.994Z,10.71
2022-10-23T01:50:20.824Z,10.67
2022-10-23T01:52:31.156Z,10.79
2022-10-23T01:54:44.172Z,10.72
2022-10-23T01:56:54.537Z,10.64
2022-10-23T01:59:16.412Z,10.54
2022-10-23T02:01:29.144Z,10.48
2022-10-23T02:03:40.448Z,10.65
2022-10-23T02:05:48.976Z,10.57
2022-10-23T02:07:57.362Z,10.49
2022-10-23T02:10:06.031Z,10.44
2022-10-23T02:12:21.649Z,10.43
2022-10-23T02:14:42.906Z,10.36
2022-10-23T02:16:54.530Z,10.35
2022-10-23T02:19:13.851Z,10.43
2022-10-23T02:21:34.267Z,10.41
2022-10-23T02:23:53.837Z,10.44
2022-10-23T02:26:10.507Z,10.36
2022-10-23T02:28:23.042Z,10.31
2022-10-23T02:30:40.784Z,10.40
2022-10-23T02:32:53.941Z,10.35
2022-10-23T02:35:02.952Z,10.30
2022-10-23T02:37:11.719Z,10.36
2022-10-23T02:39:19.749Z,10.37
2022-10-23T02:41:50.038Z,10.34
2022-10-23T02:44:10.868Z,10.41
2022-10-23T02:46:28.234Z,10.41
2022-10-23T02:48:43.598Z,10.53
2022-10-23T02:51:00.592Z,10.57
2022-10-23T02:53:17.385Z,10.51
2022-10-23T02:55:34.332Z,10.48
2022-10-23T02:57:47.923Z,10.54
2022-10-23T03:00:04.026Z,10.54
2022-10-23T03:02:25.721Z,10.56
2022-10-23T03:04:35.596Z,10.56
2022-10-23T03:06:44.300Z,10.64
2022-10-23T03:09:01.530Z,10.62
2022-10-23T03:11:09.838Z,10.70
2022-10-23T03:13:17.677Z,10.67
2022-10-23T03:15:25.558Z,10.70
2022-10-23T03:17:36.931Z,10.69
2022-10-23T03:19:44.779Z,10.72
2022-10-23T03:21:53.065Z,10.75
2022-10-23T03:24:02.414Z,10.79
2022-10-23T03:26:16.393Z,10.73
2022-10-23T03:28:24.664Z,10.78
2022-10-23T03:30:32.411Z,10.74
2022-10-23T03:32:43.360Z,10.77
2022-10-23T03:34:51.306Z,10.74
2022-10-23T03:36:59.474Z,10.78
2022-10-23T03:39:07.585Z,10.80
2022-10-23T03:41:15.945Z,10.75
2022-10-23T03:43:23.967Z,10.71
2022-10-23T03:45:32.698Z,10.75
2022-10-23T03:47:43.881Z,10.74
2022-10-23T03:49:51.896Z,10.87
2022-10-23T03:52:00.046Z,10.80
2022-10-23T03:54:08.971Z,10.73
2022-10-23T03:56:18.837Z,10.73
2022-10-23T03:58:26.863Z,10.76
2022-10-23T04:00:35.092Z,10.69
2022-10-23T04:02:46.756Z,10.74
2022-10-23T04:04:55.810Z,10.65
2022-10-23T04:07:03.650Z,10.74
2022-10-23T04:11:39.883Z,10.69
2022-10-23T04:13:48.718Z,10.68
2022-10-23T04:15:56.571Z,10.67
2022-10-23T04:18:07.897Z,10.67
2022-10-23T04:20:16.431Z,10.56
2022-10-23T04:22:26.138Z,10.57
2022-10-23T04:24:36.944Z,10.57
2022-10-23T04:26:44.972Z,10.59
2022-10-23T04:28:53.431Z,10.61
2022-10-23T04:31:01.433Z,10.62
2022-10-23T04:33:12.347Z,10.60
2022-10-23T04:35:20.307Z,10.65
2022-10-23T04:37:28.533Z,10.73
2022-10-23T04:39:37.068Z,10.73
2022-10-23T04:41:44.864Z,10.81
2022-10-23T04:43:53.152Z,10.86
2022-10-23T04:46:01.461Z,10.85
2022-10-23T04:48:12.143Z,10.84
2022-10-23T04:50:40.138Z,10.78
2022-10-23T04:53:12.569Z,10.82
2022-10-23T04:55:53.560Z,10.85
2022-10-23T04:58:32.688Z,10.95
2022-10-23T05:00:40.564Z,10.94
2022-10-23T05:02:50.412Z,10.93
2022-10-23T05:05:01.353Z,10.98
2022-10-23T05:07:15.128Z,10.91
2022-10-23T05:09:39.984Z,10.91
2022-10-23T05:12:10.649Z,10.94
2022-10-23T05:14:21.996Z,10.92
2022-10-23T05:16:39.211Z,10.85
2022-10-23T05:18:49.623Z,10.84
2022-10-23T05:21:05.295Z,10.70
2022-10-23T05:23:16.803Z,10.64
2022-10-23T05:25:33.666Z,10.81
2022-10-23T05:27:51.498Z,10.89
2022-10-23T05:29:59.613Z,10.91
2022-10-23T05:32:13.608Z,10.82
2022-10-23T05:34:26.917Z,10.80
2022-10-23T05:36:37.656Z,10.82
2022-10-23T05:38:45.841Z,10.81
2022-10-23T05:41:01.066Z,10.78
2022-10-23T05:43:10.748Z,10.72
2022-10-23T05:45:30.193Z,10.55
2022-10-23T05:48:11.110Z,10.73
2022-10-23T05:50:47.526Z,10.64
2022-10-23T05:53:05.931Z,10.51
2022-10-23T05:55:31.746Z,10.36
2022-10-23T05:57:57.671Z,10.44
2022-10-23T06:00:25.677Z,10.44
2022-10-23T06:02:51.195Z,10.55
2022-10-23T06:05:12.580Z,10.45
2022-10-23T06:07:39.226Z,10.47
2022-10-23T06:09:51.632Z,10.43
2022-10-23T06:12:00.797Z,10.46
2022-10-23T06:14:09.857Z,10.40
2022-10-23T06:16:20.701Z,10.47
2022-10-23T06:18:29.167Z,10.32
2022-10-23T06:20:43.219Z,10.36
2022-10-23T06:22:57.497Z,10.44
2022-10-23T06:25:27.553Z,10.41
2022-10-23T06:27:37.769Z,10.41
2022-10-23T06:29:47.209Z,10.45
2022-10-23T06:31:55.297Z,10.45
2022-10-23T06:34:04.528Z,10.45
2022-10-23T06:36:13.045Z,10.47
2022-10-23T06:38:23.267Z,10.48
2022-10-23T06:40:38.924Z,10.58
2022-10-23T06:42:48.332Z,10.57
2022-10-23T06:45:20.661Z,10.59
2022-10-23T06:47:28.402Z,10.66
2022-10-23T06:49:54.830Z,10.71
2022-10-23T06:52:03.510Z,10.80
2022-10-23T06:54:11.554Z,10.88
2022-10-23T06:56:35.214Z,10.84
2022-10-23T06:58:46.628Z,10.88
2022-10-23T07:00:56.912Z,10.92
2022-10-23T07:03:05.341Z,11.13
2022-10-23T07:05:15.112Z,11.09
2022-10-23T07:07:24.246Z,11.24
2022-10-23T07:09:33.609Z,11.33
2022-10-23T07:12:04.727Z,11.52
2022-10-23T07:14:21.948Z,11.55
2022-10-23T07:16:31.067Z,11.68
2022-10-23T07:18:39.568Z,11.74
2022-10-23T07:21:10.627Z,11.93
2022-10-23T07:23:20.673Z,12.24
2022-10-23T07:25:29.657Z,12.30
2022-10-23T07:27:44.773Z,12.26
2022-10-23T07:29:53.163Z,12.33
2022-10-23T07:32:01.110Z,12.27
2022-10-23T07:34:32.113Z,12.27
2022-10-23T07:37:03.472Z,12.28
2022-10-23T07:39:12.263Z,12.01
2022-10-23T07:41:27.560Z,12.15
2022-10-23T07:43:38.327Z,12.09
2022-10-23T07:45:49.495Z,12.18
2022-10-23T07:48:14.343Z,12.24
2022-10-23T07:50:40.749Z,12.21
2022-10-23T07:52:49.002Z,12.12
2022-10-23T07:54:58.154Z,12.14
2022-10-23T07:57:09.363Z,12.21
2022-10-23T07:59:26.319Z,12.46
2022-10-23T08:01:37.066Z,12.47
2022-10-23T08:03:45.252Z,12.56
2022-10-23T08:05:53.215Z,12.54
2022-10-23T08:08:01.301Z,12.72
2022-10-23T08:10:10.807Z,12.92
2022-10-23T08:12:21.401Z,12.51
2022-10-23T08:14:31.821Z,12.64
2022-10-23T08:16:41.665Z,12.61
2022-10-23T08:19:18.240Z,12.78
2022-10-23T08:21:27.903Z,12.49
2022-10-23T08:23:36.153Z,12.69
2022-10-23T08:25:44.455Z,12.69
2022-10-23T08:27:54.888Z,12.93
2022-10-23T08:30:06.438Z,12.94
2022-10-23T08:32:14.507Z,12.95
2022-10-23T08:34:34.146Z,13.04
2022-10-23T08:36:44.538Z,13.33
2022-10-23T08:38:53.730Z,13.44
2022-10-23T08:41:03.125Z,13.64
2022-10-23T08:43:38.991Z,13.68
2022-10-23T08:46:09.694Z,13.68
2022-10-23T08:49:02.471Z,13.72
2022-10-23T08:51:32.077Z,13.81
2022-10-23T08:53:47.801Z,14.19
2022-10-23T08:56:02.648Z,14.39
2022-10-23T08:58:16.800Z,14.40
2022-10-23T09:00:24.747Z,14.43
2022-10-23T09:02:40.209Z,14.82
2022-10-23T09:04:51.153Z,15.08
2022-10-23T09:09:58.641Z,16.30
2022-10-23T09:12:16.826Z,18.18
2022-10-23T09:14:41.152Z,20.04
2022-10-23T09:17:00.985Z,21.77
2022-10-23T09:19:19.753Z,20.67
2022-10-23T09:21:30.278Z,22.22
2022-10-23T09:23:38.352Z,22.23
2022-10-23T09:25:47.685Z,22.81
2022-10-23T09:28:01.373Z,23.39
2022-10-23T09:30:13.236Z,22.13
2022-10-23T09:32:21.831Z,22.43
2022-10-23T09:34:34.270Z,24.56
2022-10-23T09:36:52.839Z,24.45
2022-10-23T09:39:02.745Z,23.95
2022-10-23T09:41:17.076Z,23.38
2022-10-23T09:43:27.635Z,24.85
2022-10-23T09:45:42.696Z,25.27
2022-10-23T09:47:54.998Z,24.83
2022-10-23T09:50:05.826Z,24.46
2022-10-23T09:52:27.043Z,23.83
2022-10-23T09:54:38.205Z,24.82
2022-10-23T09:56:51.504Z,24.64
2022-10-23T09:59:02.780Z,24.33
2022-10-23T10:01:26.310Z,24.11
2022-10-23T10:03:40.387Z,23.87
2022-10-23T10:06:01.210Z,25.62
2022-10-23T10:08:20.037Z,25.89
2022-10-23T10:10:30.259Z,23.83
2022-10-23T10:12:49.952Z,23.94
2022-10-23T10:15:09.635Z,24.28
2022-10-23T10:17:26.433Z,24.37
2022-10-23T10:19:48.651Z,23.82
2022-10-23T10:22:04.882Z,23.10
2022-10-23T10:24:20.249Z,22.94
2022-10-23T10:26:38.074Z,21.89
2022-10-23T10:28:57.338Z,21.79
2022-10-23T10:31:18.425Z,20.80
2022-10-23T10:33:38.605Z,21.43
2022-10-23T10:35:55.642Z,22.68
2022-10-23T10:38:22.989Z,22.38
2022-10-23T10:40:34.479Z,22.55
2022-10-23T10:43:04.267Z,20.59
2022-10-23T10:45:32.649Z,19.44
2022-10-23T10:47:50.692Z,19.49
2022-10-23T10:50:15.199Z,19.43
2022-10-23T10:52:50.645Z,19.54
2022-10-23T10:55:12.374Z,18.91
2022-10-23T10:57:32.677Z,19.25
2022-10-23T10:59:43.089Z,19.66
2022-10-23T11:01:59.833Z,19.69
2022-10-23T11:04:14.445Z,19.29
2022-10-23T11:06:26.441Z,19.44
2022-10-23T11:08:49.983Z,19.72
2022-10-23T11:11:15.753Z,20.13
2022-10-23T11:13:29.850Z,20.69
2022-10-23T11:15:43.834Z,20.30
2022-10-23T11:17:56.678Z,19.85
2022-10-23T11:20:09.613Z,19.50
2022-10-23T11:22:26.381Z,19.79
2022-10-23T11:24:58.370Z,19.85
2022-10-23T11:27:29.158Z,19.70
2022-10-23T11:30:03.580Z,19.55
2022-10-23T11:32:28.911Z,19.18
2022-10-23T11:35:08.432Z,18.90
2022-10-23T11:37:21.296Z,18.74
2022-10-23T11:39:30.982Z,18.46
2022-10-23T11:41:51.961Z,18.57
2022-10-23T11:44:05.790Z,18.48
2022-10-23T11:46:18.155Z,18.69
2022-10-23T11:48:38.983Z,18.69
2022-10-23T11:50:59.039Z,18.74
2022-10-23T11:53:26.254Z,18.91
2022-10-23T11:55:36.011Z,19.19
2022-10-23T11:57:43.921Z,19.19
2022-10-23T11:59:59.842Z,19.12
2022-10-23T12:02:25.811Z,19.14
2022-10-23T12:04:41.725Z,19.10
2022-10-23T12:06:52.677Z,19.19
2022-10-23T12:09:07.610Z,19.28
2022-10-23T12:11:31.691Z,19.78
2022-10-23T12:13:49.594Z,19.77
2022-10-23T12:16:01.115Z,19.97
2022-10-23T12:18:17.975Z,20.31
2022-10-23T12:20:34.612Z,20.26
2022-10-23T12:22:50.533Z,19.92
2022-10-23T12:25:06.378Z,20.23
2022-10-23T12:27:23.323Z,20.46
2022-10-23T12:29:53.760Z,20.21
2022-10-23T12:32:18.791Z,20.28
2022-10-23T12:34:38.399Z,20.61
2022-10-23T12:37:03.093Z,21.05
2022-10-23T12:39:29.206Z,21.24
2022-10-23T12:41:41.112Z,20.59
2022-10-23T12:43:56.281Z,20.61
2022-10-23T12:46:08.545Z,20.41
2022-10-23T12:48:25.999Z,20.80
2022-10-23T12:50:35.816Z,21.14
2022-10-23T12:52:54.045Z,21.14
2022-10-23T12:55:01.950Z,20.98
2022-10-23T12:57:23.098Z,21.17
2022-10-23T12:59:41.918Z,20.97
2022-10-23T13:01:52.745Z,21.33
2022-10-23T13:04:11.090Z,21.73
2022-10-23T13:06:19.691Z,21.81
2022-10-23T13:08:35.119Z,21.71
2022-10-23T13:11:23.002Z,21.32
2022-10-23T13:13:33.120Z,20.98
2022-10-23T13:15:43.815Z,20.64
2022-10-23T13:18:05.234Z,20.31
2022-10-23T13:20:24.188Z,20.66
2022-10-23T13:22:31.961Z,20.51
2022-10-23T13:24:40.064Z,20.50
2022-10-23T13:26:49.104Z,20.39
2022-10-23T13:28:57.702Z,20.57
2022-10-23T13:31:10.271Z,20.71
2022-10-23T13:33:25.209Z,20.63
2022-10-23T13:35:37.445Z,20.61
2022-10-23T13:37:45.299Z,20.56
2022-10-23T13:40:03.076Z,20.57
2022-10-23T13:42:16.451Z,20.48
2022-10-23T13:44:26.777Z,20.62
2022-10-23T13:46:35.184Z,20.75
2022-10-23T13:48:43.108Z,20.89
2022-10-23T13:50:53.658Z,20.94
2022-10-23T13:53:01.859Z,20.85
2022-10-23T13:55:20.407Z,20.83
2022-10-23T13:57:29.044Z,20.82
2022-10-23T13:59:36.778Z,20.74
2022-10-23T14:01:46.391Z,20.70
2022-10-23T14:03:55.625Z,20.67
2022-10-23T14:06:06.381Z,20.55
2022-10-23T14:08:14.867Z,20.44
2022-10-23T14:10:25.653Z,20.37
2022-10-23T14:12:42.448Z,20.28
2022-10-23T14:14:54.137Z,20.12
2022-10-23T14:17:02.456Z,20.08
2022-10-23T14:19:10.928Z,20.06
2022-10-23T14:21:24.601Z,19.97
2022-10-23T14:23:32.469Z,19.80
2022-10-23T14:25:40.209Z,19.71
2022-10-23T14:27:48.288Z,19.53
2022-10-23T14:29:56.383Z,19.60
2022-10-23T14:32:04.260Z,19.53
2022-10-23T14:34:12.206Z,19.54
2022-10-23T14:36:22.782Z,19.52
2022-10-23T14:38:31.665Z,19.44
2022-10-23T14:40:41.320Z,19.39
2022-10-23T14:42:49.606Z,19.32
2022-10-23T14:44:57.399Z,19.14
2022-10-23T14:47:05.219Z,19.09
2022-10-23T14:49:13.187Z,19.14
2022-10-23T14:51:25.687Z,19.03
2022-10-23T14:53:34.021Z,19.17
2022-10-23T14:55:42.429Z,19.02
2022-10-23T14:57:50.160Z,18.95
2022-10-23T14:59:57.926Z,18.90
2022-10-23T15:02:06.023Z,18.87
2022-10-23T15:04:15.035Z,18.87
2022-10-23T15:06:26.663Z,18.84
2022-10-23T15:08:36.153Z,18.95
2022-10-23T15:10:44.173Z,19.02
2022-10-23T15:12:51.970Z,19.04
2022-10-23T15:14:59.678Z,19.04
2022-10-23T15:17:09.783Z,19.10
2022-10-23T15:19:20.800Z,19.14
2022-10-23T15:21:31.196Z,19.07
2022-10-23T15:23:42.583Z,19.03
2022-10-23T15:25:58.324Z,19.10
2022-10-23T15:28:06.562Z,19.02
2022-10-23T15:30:17.449Z,19.00
2022-10-23T15:32:25.178Z,18.96
2022-10-23T15:34:33.395Z,18.82
2022-10-23T15:36:44.941Z,18.77
2022-10-23T15:38:53.696Z,18.81
2022-10-23T15:41:16.336Z,18.81
2022-10-23T15:43:24.450Z,18.78
2022-10-23T15:45:32.309Z,18.70
2022-10-23T15:47:40.454Z,18.64
2022-10-23T15:49:48.337Z,18.62
2022-10-23T15:51:59.741Z,18.59
2022-10-23T15:54:09.294Z,18.53
2022-10-23T15:56:17.398Z,18.45
2022-10-23T15:58:25.263Z,18.39
2022-10-23T16:00:36.093Z,18.31
2022-10-23T16:02:46.510Z,18.21
2022-10-23T16:04:54.773Z,18.32
2022-10-23T16:07:05.218Z,18.23
2022-10-23T16:09:13.320Z,18.17
2022-10-23T16:11:24.802Z,18.24
2022-10-23T16:13:32.777Z,18.18
2022-10-23T16:15:41.410Z,18.07
2022-10-23T16:17:49.412Z,17.95
2022-10-23T16:19:57.342Z,17.88
2022-10-23T16:22:07.873Z,17.73
2022-10-23T16:24:15.836Z,17.63
2022-10-23T16:26:25.887Z,17.49
2022-10-23T16:28:34.676Z,17.44
2022-10-23T16:30:44.281Z,17.48
2022-10-23T16:32:52.926Z,17.55
2022-10-23T16:35:01.173Z,17.60
2022-10-23T16:37:19.462Z,17.56
2022-10-23T16:39:32.182Z,17.67
2022-10-23T16:41:59.433Z,17.79
2022-10-23T16:44:16.421Z,17.76
2022-10-23T16:46:36.830Z,17.72
2022-10-23T16:48:45.299Z,17.56
2022-10-23T16:50:53.700Z,17.47
2022-10-23T16:53:04.496Z,17.52
2022-10-23T16:55:13.061Z,17.62
2022-10-23T16:57:21.086Z,17.76
2022-10-23T16:59:28.985Z,17.77
2022-10-23T17:01:37.171Z,17.75
2022-10-23T17:03:48.400Z,17.83
2022-10-23T17:05:59.623Z,17.82
2022-10-23T17:08:11.872Z,17.81
2022-10-23T17:10:19.664Z,17.77
2022-10-23T17:12:27.532Z,17.78
2022-10-23T17:14:35.676Z,17.71
2022-10-23T17:16:47.988Z,17.67
2022-10-23T17:18:56.076Z,17.69
2022-10-23T17:21:04.398Z,17.68
2022-10-23T17:23:15.674Z,17.70
2022-10-23T17:25:23.936Z,17.67
2022-10-23T17:27:31.977Z,17.56
2022-10-23T17:29:39.867Z,17.45
2022-10-23T17:31:51.456Z,17.60
2022-10-23T17:34:02.453Z,17.60
2022-10-23T17:36:11.661Z,17.52
2022-10-23T17:38:22.207Z,17.51
2022-10-23T17:40:33.102Z,17.43
2022-10-23T17:42:41.284Z,17.35
2022-10-23T17:44:52.088Z,17.26
2022-10-23T17:46:59.906Z,17.23
2022-10-23T17:49:09.271Z,17.21
2022-10-23T17:51:20.066Z,17.30
2022-10-23T17:53:31.012Z,17.28
2022-10-23T17:55:42.409Z,17.20
2022-10-23T17:57:50.597Z,17.13
2022-10-23T17:59:58.705Z,17.20
2022-10-23T18:02:07.446Z,17.15
2022-10-23T18:04:15.594Z,17.14
2022-10-23T18:06:28.816Z,17.10
2022-10-23T18:08:40.547Z,17.00
2022-10-23T18:10:48.436Z,17.02
2022-10-23T18:12:57.057Z,17.13
2022-10-23T18:15:05.277Z,17.16
2022-10-23T18:17:13.594Z,17.35
2022-10-23T18:19:21.963Z,17.45
2022-10-23T18:21:30.894Z,17.38
2022-10-23T18:23:41.459Z,17.29
2022-10-23T18:25:49.965Z,17.26
2022-10-23T18:28:01.776Z,17.38
2022-10-23T18:30:12.724Z,17.36
2022-10-23T18:32:20.830Z,17.29
2022-10-23T18:34:29.606Z,17.34
2022-10-23T18:36:40.026Z,17.40
2022-10-23T18:38:51.428Z,17.35
2022-10-23T18:41:02.499Z,17.34
2022-10-23T18:43:15.261Z,17.26
2022-10-23T18:45:28.706Z,17.23
2022-10-23T18:47:36.783Z,17.20
2022-10-23T18:49:45.245Z,17.13
2022-10-23T18:51:53.937Z,17.10
2022-10-23T18:54:07.848Z,17.15
2022-10-23T18:56:16.734Z,17.13
2022-10-23T18:58:25.202Z,17.36
2022-10-23T19:00:33.637Z,17.32
2022-10-23T19:02:42.885Z,17.37
2022-10-23T19:04:50.987Z,17.34
2022-10-23T19:06:59.197Z,17.36
2022-10-23T19:09:13.862Z,17.37
2022-10-23T19:11:24.104Z,17.32
2022-10-23T19:13:39.001Z,17.24
2022-10-23T19:15:47.883Z,17.19
2022-10-23T19:17:57.282Z,17.09
2022-10-23T19:20:12.452Z,17.05
2022-10-23T19:22:21.123Z,17.12
2022-10-23T19:24:40.046Z,16.99
2022-10-23T19:26:47.943Z,16.98
2022-10-23T19:28:56.240Z,17.06
2022-10-23T19:31:04.439Z,17.18
2022-10-23T19:33:12.757Z,17.33
2022-10-23T19:35:23.217Z,17.26
2022-10-23T19:37:31.371Z,17.22
2022-10-23T19:39:42.606Z,17.13
2022-10-23T19:41:51.779Z,16.98
2022-10-23T19:44:00.055Z,16.92
2022-10-23T19:46:12.006Z,16.90
2022-10-23T19:48:20.933Z,16.92
2022-10-23T19:50:29.131Z,16.83
2022-10-23T19:52:37.737Z,16.81
2022-10-23T19:54:49.225Z,16.87
2022-10-23T19:56:57.860Z,16.86
2022-10-23T19:59:06.356Z,16.86
2022-10-23T20:01:16.869Z,17.00
2022-10-23T20:03:25.287Z,17.07
2022-10-23T20:05:33.721Z,17.26
2022-10-23T20:07:42.964Z,17.20
2022-10-23T20:09:53.794Z,17.26
2022-10-23T20:12:01.991Z,17.40
2022-10-23T20:14:11.269Z,17.46
2022-10-23T20:16:20.997Z,17.33
2022-10-23T20:18:29.505Z,17.36
2022-10-23T20:20:42.596Z,17.67
2022-10-23T20:22:54.623Z,17.74
2022-10-23T20:25:06.780Z,17.73
2022-10-23T20:27:15.659Z,17.74
2022-10-23T20:29:24.924Z,17.92
2022-10-23T20:31:33.178Z,18.05
2022-10-23T20:33:43.196Z,17.95
2022-10-23T20:35:52.934Z,18.14
2022-10-23T20:38:01.416Z,18.02
2022-10-23T20:40:13.239Z,18.03
2022-10-23T20:42:21.766Z,18.14
2022-10-23T20:44:30.177Z,18.15
2022-10-23T20:46:38.535Z,18.15
2022-10-23T20:48:47.756Z,18.23
2022-10-23T20:50:56.142Z,18.21
2022-10-23T20:53:04.408Z,18.27
2022-10-23T20:55:15.419Z,18.33
2022-10-23T20:57:23.588Z,18.31
2022-10-23T20:59:31.987Z,18.25
2022-10-23T21:01:42.970Z,18.11
2022-10-23T21:03:53.937Z,18.12
2022-10-23T21:06:07.172Z,18.07
2022-10-23T21:08:15.213Z,18.11
2022-10-23T21:10:26.476Z,18.14
2022-10-23T21:12:49.455Z,18.14
2022-10-23T21:14:57.730Z,17.99
2022-10-23T21:17:06.168Z,18.12
2022-10-23T21:19:16.446Z,18.09
2022-10-23T21:21:25.953Z,18.14
2022-10-23T21:23:33.900Z,18.12
2022-10-23T21:25:45.005Z,18.40
2022-10-23T21:27:52.988Z,18.46
2022-10-23T21:30:00.910Z,18.30
2022-10-23T21:32:09.405Z,18.37
2022-10-23T21:34:17.426Z,18.43
2022-10-23T21:36:29.261Z,18.46
2022-10-23T21:38:39.254Z,18.38
2022-10-23T21:40:50.130Z,18.51
2022-10-23T21:42:58.227Z,18.48
2022-10-23T21:45:07.428Z,18.58
2022-10-23T21:47:15.866Z,18.45
2022-10-23T21:49:24.075Z,18.45
2022-10-23T21:51:35.419Z,18.41
2022-10-23T21:53:43.193Z,18.48
2022-10-23T21:55:54.695Z,18.40
2022-10-23T21:58:02.422Z,18.35
2022-10-23T22:00:12.002Z,18.29
2022-10-23T22:02:21.162Z,18.37
2022-10-23T22:04:29.759Z,18.36
2022-10-23T22:06:37.827Z,18.40
2022-10-23T22:08:47.267Z,18.31
2022-10-23T22:10:58.576Z,18.19
2022-10-23T22:13:06.828Z,18.22
2022-10-23T22:15:14.826Z,18.27
2022-10-23T22:17:23.085Z,18.10
2022-10-23T22:19:31.403Z,18.10
2022-10-23T22:21:40.594Z,18.14
2022-10-23T22:23:50.174Z,18.22
2022-10-23T22:26:01.365Z,18.06
2022-10-23T22:28:09.463Z,18.02
2022-10-23T22:30:18.622Z,18.18
2022-10-23T22:32:27.033Z,18.08
2022-10-23T22:34:52.303Z,18.07
2022-10-23T22:37:00.796Z,18.06
2022-10-23T22:39:10.411Z,18.08
2022-10-23T22:41:21.574Z,18.14
2022-10-23T22:43:29.558Z,17.96
2022-10-23T22:45:37.677Z,18.00
2022-10-23T22:47:45.923Z,17.88
2022-10-23T22:49:54.895Z,17.90
2022-10-23T22:52:03.169Z,17.74
2022-10-23T22:54:11.356Z,17.78
2022-10-23T22:56:24.755Z,17.71
2022-10-23T22:58:32.794Z,17.80
2022-10-23T23:00:43.612Z,17.74
2022-10-23T23:02:52.207Z,17.59
2022-10-23T23:05:00.720Z,17.58
2022-10-23T23:07:09.591Z,17.44
2022-10-23T23:09:19.203Z,17.50
2022-10-23T23:11:40.772Z,17.41
2022-10-23T23:13:59.904Z,17.50
2022-10-23T23:16:09.421Z,17.31
2022-10-23T23:18:17.706Z,17.28
2022-10-23T23:20:25.791Z,17.22
2022-10-23T23:22:34.081Z,17.21
2022-10-23T23:24:42.064Z,17.30
2022-10-23T23:26:52.610Z,17.27
2022-10-23T23:29:00.577Z,17.14
2022-10-23T23:31:11.392Z,17.05
2022-10-23T23:33:24.052Z,16.93
2022-10-23T23:35:32.702Z,16.94
2022-10-23T23:37:41.151Z,17.01
2022-10-23T23:39:50.686Z,17.03
2022-10-23T23:42:01.460Z,17.03
2022-10-23T23:44:09.417Z,16.99
2022-10-23T23:46:17.955Z,16.97
2022-10-23T23:48:26.510Z,16.97
2022-10-23T23:50:34.709Z,16.95
2022-10-23T23:52:42.792Z,16.85
2022-10-23T23:54:50.986Z,16.71
2022-10-23T23:57:05.834Z,16.63
2022-10-23T23:59:13.775Z,16.55
